createdAt,value
2023-04-16T00:00:02.495Z,8.8
2023-04-16T00:04:06.182Z,9
2023-04-16T00:06:10.903Z,8.9
2023-04-16T00:10:14.357Z,8.9
2023-04-16T00:18:21.286Z,8.9
2023-04-16T00:20:26.220Z,8.8
2023-04-16T00:34:41.586Z,9
2023-04-16T00:36:43.606Z,8.9
2023-04-16T00:41:13.725Z,9
2023-04-16T00:43:15.444Z,9
2023-04-16T00:45:17.200Z,9
2023-04-16T00:47:22.177Z,9
2023-04-16T00:49:23.888Z,9
2023-04-16T00:51:25.635Z,9
2023-04-16T00:53:27.353Z,9.2
2023-04-16T00:55:29.269Z,9.1
2023-04-16T00:57:30.838Z,9.1
2023-04-16T00:59:32.569Z,9.1
2023-04-16T01:01:37.551Z,9
2023-04-16T01:03:39.503Z,9.1
2023-04-16T01:05:41.010Z,9
2023-04-16T01:07:42.730Z,9
2023-04-16T01:11:46.191Z,9.1
2023-04-16T01:15:52.974Z,9.1
2023-04-16T01:17:54.696Z,9.1
2023-04-16T01:21:58.107Z,9.2
2023-04-16T01:23:59.821Z,9.2
2023-04-16T01:35:14.211Z,9.1
2023-04-16T01:37:15.947Z,9
2023-04-16T01:39:17.690Z,9
2023-04-16T01:41:19.403Z,9.1
2023-04-16T01:43:24.399Z,9.1
2023-04-16T01:45:26.125Z,9.1
2023-04-16T01:49:29.580Z,9.1
2023-04-16T01:51:31.315Z,9
2023-04-16T01:53:33.840Z,9
2023-04-16T01:55:34.798Z,9.1
2023-04-16T01:59:41.477Z,9
2023-04-16T02:01:43.230Z,9
2023-04-16T02:15:58.626Z,9
2023-04-16T02:18:00.353Z,9
2023-04-16T02:22:03.774Z,9
2023-04-16T02:24:05.489Z,8.9
2023-04-16T02:26:10.431Z,9
2023-04-16T02:28:12.188Z,9
2023-04-16T02:30:13.912Z,9.1
2023-04-16T02:31:16.412Z,9.1
2023-04-16T02:33:18.125Z,9
2023-04-16T02:35:19.880Z,9.1
2023-04-16T02:37:21.575Z,9.1
2023-04-16T02:39:26.545Z,9.1
2023-04-16T02:43:29.991Z,9.2
2023-04-16T02:45:31.872Z,9
2023-04-16T02:47:33.493Z,9.1
2023-04-16T02:57:45.347Z,9.1
2023-04-16T03:01:48.948Z,9.1
2023-04-16T03:03:50.626Z,9.2
2023-04-16T03:05:52.262Z,9.2
2023-04-16T03:07:57.218Z,9
2023-04-16T03:09:58.973Z,9.1
2023-04-16T03:12:00.686Z,9.1
2023-04-16T03:16:04.202Z,9
2023-04-16T03:18:05.884Z,9.1
2023-04-16T03:22:12.582Z,9.1
2023-04-16T03:27:18.505Z,9.1
2023-04-16T03:29:20.212Z,9.1
2023-04-16T03:31:22.011Z,9
2023-04-16T03:33:23.675Z,9.1
2023-04-16T03:35:28.917Z,9.1
2023-04-16T03:37:30.357Z,9.2
2023-04-16T03:39:32.071Z,9.2
2023-04-16T03:41:33.798Z,9.2
2023-04-16T03:45:37.284Z,9.1
2023-04-16T04:04:00.992Z,9.2
2023-04-16T04:18:16.163Z,9.2
2023-04-16T04:22:19.602Z,9.1
2023-04-16T04:24:48.268Z,9
2023-04-16T04:26:50.002Z,9
2023-04-16T04:28:51.726Z,9
2023-04-16T04:30:56.695Z,9
2023-04-16T04:32:58.484Z,9
2023-04-16T04:39:03.596Z,9
2023-04-16T04:41:05.300Z,9
2023-04-16T04:43:07.052Z,8.9
2023-04-16T04:53:18.939Z,9
2023-04-16T04:55:20.679Z,8.9
2023-04-16T05:17:46.170Z,9.1
2023-04-16T05:18:48.621Z,9
2023-04-16T05:39:09.399Z,9.2
2023-04-16T05:41:14.066Z,9.2
2023-04-16T05:43:15.778Z,9.3
2023-04-16T05:45:17.533Z,9.2
2023-04-16T05:47:19.267Z,9.4
2023-04-16T05:49:21.000Z,9.3
2023-04-16T05:51:22.709Z,9.2
2023-04-16T05:53:24.422Z,9.3
2023-04-16T05:57:31.133Z,9.4
2023-04-16T05:59:32.845Z,9.4
2023-04-16T06:03:36.440Z,9.5
2023-04-16T06:09:44.850Z,9.6
2023-04-16T06:11:46.565Z,9.7
2023-04-16T06:13:48.312Z,9.6
2023-04-16T06:14:50.814Z,9.7
2023-04-16T06:16:52.528Z,9.6
2023-04-16T06:18:54.273Z,9.6
2023-04-16T06:20:56.005Z,9.6
2023-04-16T06:23:00.988Z,9.6
2023-04-16T06:27:04.458Z,9.5
2023-04-16T06:29:06.173Z,9.4
2023-04-16T06:31:07.991Z,9.5
2023-04-16T06:33:09.677Z,9.5
2023-04-16T06:35:11.387Z,9.5
2023-04-16T06:37:16.369Z,9.4
2023-04-16T06:39:18.101Z,9.5
2023-04-16T06:41:19.835Z,9.4
2023-04-16T06:43:21.573Z,9.5
2023-04-16T06:45:23.323Z,9.5
2023-04-16T06:47:25.110Z,9.5
2023-04-16T06:49:26.784Z,9.6
2023-04-16T06:51:31.760Z,9.6
2023-04-16T06:59:38.702Z,9.6
2023-04-16T07:01:40.441Z,9.6
2023-04-16T07:03:42.374Z,9.6
2023-04-16T07:05:47.170Z,9.6
2023-04-16T07:10:53.154Z,9.7
2023-04-16T07:12:54.906Z,9.8
2023-04-16T07:21:05.190Z,9.9
2023-04-16T07:23:06.806Z,9.8
2023-04-16T07:25:08.599Z,9.8
2023-04-16T07:29:12.321Z,10
2023-04-16T07:31:13.780Z,9.9
2023-04-16T07:35:20.520Z,9.9
2023-04-16T07:37:22.244Z,10
2023-04-16T07:39:23.992Z,10.1
2023-04-16T07:43:27.471Z,10
2023-04-16T07:51:37.708Z,10.2
2023-04-16T07:53:39.454Z,10.2
2023-04-16T08:03:51.528Z,10.2
2023-04-16T08:14:30.348Z,10.4
2023-04-16T08:18:33.837Z,10.4
2023-04-16T08:24:39.092Z,10.6
2023-04-16T08:26:40.857Z,10.6
2023-04-16T08:28:45.867Z,10.5
2023-04-16T08:30:47.594Z,10.6
2023-04-16T08:32:50.280Z,10.6
2023-04-16T08:34:51.110Z,10.8
2023-04-16T08:36:52.885Z,10.9
2023-04-16T08:38:54.652Z,10.8
2023-04-16T08:40:56.389Z,10.9
2023-04-16T08:53:10.183Z,11.4
2023-04-16T08:55:11.995Z,11.5
2023-04-16T08:57:16.984Z,11.8
2023-04-16T08:59:18.740Z,11.8
2023-04-16T09:01:20.630Z,11.8
2023-04-16T09:02:23.252Z,11.8
2023-04-16T09:06:26.562Z,11.8
2023-04-16T09:08:28.348Z,11.8
2023-04-16T09:10:34.738Z,11.7
2023-04-16T09:12:35.116Z,11.9
2023-04-16T09:14:36.884Z,12
2023-04-16T09:16:38.890Z,12.3
2023-04-16T09:18:40.405Z,12.3
2023-04-16T09:20:42.730Z,12.4
2023-04-16T09:24:48.991Z,12.2
2023-04-16T09:28:52.571Z,12
2023-04-16T09:30:54.318Z,12
2023-04-16T09:32:56.168Z,12.1
2023-04-16T09:34:57.922Z,12.1
2023-04-16T09:36:59.653Z,12.1
2023-04-16T09:39:04.691Z,12.4
2023-04-16T09:41:06.533Z,12.8
2023-04-16T09:43:08.258Z,12.6
2023-04-16T09:45:10.060Z,12.6
2023-04-16T09:53:20.422Z,13.5
2023-04-16T09:58:28.032Z,14.4
2023-04-16T10:00:32.456Z,14.5
2023-04-16T10:02:31.708Z,14.4
2023-04-16T10:04:33.433Z,14.6
2023-04-16T10:08:40.258Z,13.9
2023-04-16T10:10:42.174Z,13.9
2023-04-16T10:14:46.458Z,13.2
2023-04-16T10:18:49.293Z,13.5
2023-04-16T10:20:54.335Z,13.1
2023-04-16T10:22:56.132Z,13.4
2023-04-16T10:26:59.740Z,14
2023-04-16T10:29:01.524Z,14.6
2023-04-16T10:31:03.404Z,14.6
2023-04-16T10:33:05.211Z,14.6
2023-04-16T10:35:10.159Z,15.2
2023-04-16T10:37:11.966Z,15.4
2023-04-16T10:39:16.762Z,15.2
2023-04-16T10:41:15.595Z,15.1
2023-04-16T10:43:17.381Z,15
2023-04-16T10:45:19.215Z,14.8
2023-04-16T10:47:21.023Z,14.4
2023-04-16T10:49:26.049Z,14.4
2023-04-16T10:51:27.934Z,14.5
2023-04-16T10:53:29.667Z,14.8
2023-04-16T10:54:32.172Z,14.6
2023-04-16T10:56:33.980Z,14.4
2023-04-16T10:58:35.820Z,14
2023-04-16T11:00:37.596Z,13.6
2023-04-16T11:02:42.860Z,13.6
2023-04-16T11:04:44.525Z,13.6
2023-04-16T11:06:46.242Z,13.5
2023-04-16T11:08:54.592Z,13.5
2023-04-16T11:10:49.841Z,13.4
2023-04-16T11:12:51.664Z,13.6
2023-04-16T11:14:53.486Z,13.9
2023-04-16T11:16:58.537Z,14.4
2023-04-16T11:19:00.349Z,14.4
2023-04-16T11:21:02.139Z,14.2
2023-04-16T11:23:04.011Z,14.7
2023-04-16T11:25:05.806Z,14.2
2023-04-16T11:27:07.613Z,14.8
2023-04-16T11:29:09.577Z,14.6
2023-04-16T11:31:14.564Z,14.6
2023-04-16T11:33:16.341Z,14.7
2023-04-16T11:35:18.144Z,14.7
2023-04-16T11:39:21.736Z,14.3
2023-04-16T11:41:23.518Z,14.5
2023-04-16T11:52:02.623Z,15.1
2023-04-16T11:54:04.428Z,15.1
2023-04-16T11:56:06.828Z,15.1
2023-04-16T11:58:11.258Z,15.2
2023-04-16T12:00:13.153Z,15.5
2023-04-16T12:02:14.935Z,15.1
2023-04-16T12:04:16.850Z,14.9
2023-04-16T12:06:18.512Z,14.4
2023-04-16T12:08:20.308Z,14.7
2023-04-16T12:10:22.105Z,15.1
2023-04-16T12:12:27.299Z,15.1
2023-04-16T12:14:28.969Z,15
2023-04-16T12:16:30.834Z,14.6
2023-04-16T12:18:32.566Z,14.3
2023-04-16T12:20:34.374Z,14.3
2023-04-16T12:24:38.003Z,14.1
2023-04-16T12:26:43.058Z,13.8
2023-04-16T12:30:46.685Z,13.8
2023-04-16T12:32:48.523Z,14.1
2023-04-16T12:34:50.279Z,14.4
2023-04-16T12:36:52.079Z,14.2
2023-04-16T12:38:53.872Z,14.2
2023-04-16T12:40:58.942Z,14.3
2023-04-16T12:43:00.731Z,14.3
2023-04-16T12:45:02.567Z,14.7
2023-04-16T12:46:05.073Z,15.2
2023-04-16T12:48:06.879Z,15.4
2023-04-16T13:06:26.367Z,16.2
2023-04-16T13:08:31.419Z,15.1
2023-04-16T13:10:33.236Z,15.2
2023-04-16T13:12:35.042Z,15
2023-04-16T13:16:38.680Z,14.6
2023-04-16T13:18:40.476Z,14.3
2023-04-16T13:20:42.260Z,14.4
2023-04-16T13:24:49.155Z,14.5
2023-04-16T13:37:03.240Z,14.7
2023-04-16T13:39:05.064Z,14.7
2023-04-16T13:41:06.915Z,14.6
2023-04-16T13:46:13.116Z,14
2023-04-16T13:48:14.846Z,13.7
2023-04-16T13:52:21.682Z,13.6
2023-04-16T13:56:25.302Z,13.5
2023-04-16T13:58:27.072Z,13.7
2023-04-16T14:00:30.112Z,13.4
2023-04-16T14:02:30.743Z,13.3
2023-04-16T14:04:35.740Z,13.7
2023-04-16T14:06:37.545Z,13.5
2023-04-16T14:08:39.342Z,13.4
2023-04-16T14:10:41.149Z,13.4
2023-04-16T14:16:46.567Z,13.7
2023-04-16T14:24:56.961Z,13.7
2023-04-16T14:29:00.580Z,13.8
2023-04-16T14:33:07.457Z,13.6
2023-04-16T14:35:09.199Z,13.5
2023-04-16T14:37:11.005Z,13.6
2023-04-16T14:40:15.327Z,13.8
2023-04-16T14:42:17.137Z,13.3
2023-04-16T14:44:18.932Z,13.4
2023-04-16T14:46:24.000Z,13.3
2023-04-16T14:48:25.766Z,13.3
2023-04-16T14:50:27.555Z,13.3
2023-04-16T14:52:29.355Z,13.3
2023-04-16T14:54:31.146Z,13.2
2023-04-16T14:56:32.937Z,13.1
2023-04-16T14:58:34.743Z,13.1
2023-04-16T15:00:40.104Z,13.3
2023-04-16T15:02:41.816Z,13.4
2023-04-16T15:04:43.345Z,13.3
2023-04-16T15:06:46.484Z,13.3
2023-04-16T15:08:46.942Z,13.4
2023-04-16T15:10:48.723Z,13.2
2023-04-16T15:12:50.516Z,13.4
2023-04-16T15:14:55.572Z,13.8
2023-04-16T15:16:57.388Z,14
2023-04-16T15:18:59.144Z,13.9
2023-04-16T15:21:00.915Z,13.9
2023-04-16T15:23:02.732Z,13.7
2023-04-16T15:25:04.543Z,13.3
2023-04-16T15:27:06.325Z,13.1
2023-04-16T15:29:11.369Z,13.4
2023-04-16T15:31:13.226Z,13.5
2023-04-16T15:33:14.940Z,13.1
2023-04-16T15:35:43.635Z,13.7
2023-04-16T15:37:45.435Z,13.8
2023-04-16T15:39:47.209Z,13.3
2023-04-16T15:43:54.040Z,13.3
2023-04-16T15:45:57.497Z,13.3
2023-04-16T15:56:09.571Z,13.1
2023-04-16T15:58:11.375Z,13.2
2023-04-16T16:12:27.151Z,13.3
2023-04-16T16:14:28.935Z,13.1
2023-04-16T16:16:30.744Z,13
2023-04-16T16:18:32.521Z,12.8
2023-04-16T16:20:34.314Z,12.6
2023-04-16T16:22:36.093Z,12.7
2023-04-16T16:24:41.145Z,13
2023-04-16T16:26:42.944Z,12.9
2023-04-16T16:28:44.732Z,12.6
2023-04-16T16:29:47.243Z,12.4
2023-04-16T16:35:52.585Z,12.7
2023-04-16T16:37:58.174Z,12.4
2023-04-16T16:39:59.968Z,12.5
2023-04-16T16:42:01.879Z,12.8
2023-04-16T16:44:03.539Z,12.6
2023-04-16T16:46:05.302Z,12.7
2023-04-16T16:48:07.187Z,12.6
2023-04-16T16:50:08.895Z,12.7
2023-04-16T16:52:13.938Z,12.7
2023-04-16T16:54:15.710Z,12.9
2023-04-16T16:56:17.493Z,12.9
2023-04-16T16:58:19.286Z,12.8
2023-04-16T17:00:21.059Z,12.5
2023-04-16T17:02:22.971Z,12.8
2023-04-16T17:04:24.756Z,12.9
2023-04-16T17:06:29.751Z,12.6
2023-04-16T17:08:31.474Z,12.6
2023-04-16T17:10:33.820Z,12.6
2023-04-16T17:14:36.846Z,12.4
2023-04-16T17:16:38.646Z,12.4
2023-04-16T17:18:40.401Z,12.7
2023-04-16T17:20:45.445Z,12.5
2023-04-16T17:22:47.200Z,12.4
2023-04-16T17:24:48.980Z,12.3
2023-04-16T17:25:51.482Z,12.2
2023-04-16T17:36:03.609Z,12.4
2023-04-16T17:42:08.924Z,12.2
2023-04-16T17:44:11.886Z,11.9
2023-04-16T17:48:17.498Z,11.9
2023-04-16T17:52:21.061Z,12.1
2023-04-16T17:56:24.608Z,11.8
2023-04-16T17:58:26.396Z,11.9
2023-04-16T18:08:38.476Z,11.7
2023-04-16T18:20:52.372Z,11.9
2023-04-16T18:21:54.867Z,11.9
2023-04-16T18:23:56.640Z,11.8
2023-04-16T18:25:58.410Z,11.8
2023-04-16T18:30:05.248Z,11.5
2023-04-16T18:32:09.837Z,11.6
2023-04-16T18:34:08.722Z,11.5
2023-04-16T18:38:12.241Z,11.7
2023-04-16T18:42:15.771Z,11.4
2023-04-16T18:44:20.823Z,11.4
2023-04-16T18:52:27.842Z,11.2
2023-04-16T18:54:29.622Z,11.2
2023-04-16T18:56:31.366Z,11.3
2023-04-16T18:58:36.417Z,11.3
2023-04-16T19:00:38.187Z,11.3
2023-04-16T19:06:43.456Z,11.2
2023-04-16T19:08:45.213Z,11.3
2023-04-16T19:14:53.726Z,11.2
2023-04-16T19:16:55.487Z,11.2
2023-04-16T19:19:24.209Z,11.1
2023-04-16T19:21:25.969Z,11.1
2023-04-16T19:23:27.716Z,11.2
2023-04-16T19:25:32.760Z,11.1
2023-04-16T19:27:34.498Z,11.1
2023-04-16T19:29:36.282Z,11.1
2023-04-16T19:33:39.838Z,11
2023-04-16T19:37:43.356Z,10.9
2023-04-16T19:39:48.372Z,10.8
2023-04-16T19:41:50.167Z,10.9
2023-04-16T19:43:51.915Z,11
2023-04-16T19:45:53.816Z,10.8
2023-04-16T19:47:55.512Z,10.9
2023-04-16T19:51:59.011Z,10.9
2023-04-16T20:02:11.159Z,10.6
2023-04-16T20:04:12.866Z,10.6
2023-04-16T20:06:14.612Z,10.6
2023-04-16T20:08:19.623Z,10.6
2023-04-16T20:12:23.137Z,10.8
2023-04-16T20:13:25.640Z,10.6
2023-04-16T20:15:27.421Z,10.6
2023-04-16T20:17:29.210Z,10.7
2023-04-16T20:19:30.946Z,10.7
2023-04-16T20:21:35.940Z,10.6
2023-04-16T20:23:37.704Z,10.7
2023-04-16T20:25:39.494Z,10.7
2023-04-16T20:31:44.738Z,10.6
2023-04-16T20:33:47.185Z,10.7
2023-04-16T20:37:53.227Z,10.5
2023-04-16T20:43:58.488Z,10.4
2023-04-16T20:58:14.026Z,10.3
2023-04-16T21:06:24.278Z,10.2
2023-04-16T21:08:26.035Z,10.2
2023-04-16T21:09:28.526Z,10.1
2023-04-16T21:13:32.014Z,10.1
2023-04-16T21:21:42.308Z,10
2023-04-16T21:27:47.530Z,10.1
2023-04-16T21:52:16.455Z,9.9
2023-04-16T22:04:30.155Z,9.8
2023-04-16T22:05:32.656Z,9.8
2023-04-16T22:07:34.423Z,9.9
2023-04-16T22:09:36.149Z,9.8
2023-04-16T22:11:37.876Z,9.8
2023-04-16T22:13:42.882Z,9.7
2023-04-16T22:15:44.617Z,9.8
2023-04-16T22:19:48.124Z,9.8
2023-04-16T22:21:49.843Z,10
2023-04-16T22:23:51.602Z,9.9
2023-04-16T22:27:58.328Z,9.7
2023-04-16T22:32:01.970Z,9.7
2023-04-16T22:34:03.815Z,9.7
2023-04-16T22:36:05.259Z,9.6
2023-04-16T22:38:07.006Z,9.7
2023-04-16T23:00:32.615Z,9.3
2023-04-16T23:17:16.653Z,9.3
2023-04-16T23:19:18.397Z,9.2
2023-04-16T23:23:25.110Z,9.3
2023-04-16T23:25:26.853Z,9.2
2023-04-16T23:31:32.091Z,9.3
2023-04-16T23:33:33.776Z,9.2
2023-04-16T23:37:40.500Z,9.2
2023-04-16T23:39:42.226Z,9.3
2023-04-16T23:43:45.668Z,9.3
2023-04-16T23:45:47.458Z,9.3
2023-04-16T23:47:49.151Z,9.4
2023-04-16T23:49:50.861Z,9.4
2023-04-16T23:51:55.827Z,9.2
2023-04-16T23:53:57.544Z,9.1
2023-04-16T23:55:59.273Z,9.3
2023-04-16T23:57:01.766Z,9.2
2023-04-16T23:59:03.478Z,9.2
